Madison Heights, Virginia
Current Conditions -  °F | °C
As of 3:54 PM on Sunday 23 Nov 2014 (Local Time) from KLYH Reporting Station
Light Rain Light Rain  
Wind Chill: 45°   Ceiling: 2700
Heat Index: 45°   Visibility: 9mi
Dew Point: 43°   Wind: 0mph
Humidity: 93%   Direction: NA
Pressure: 30.06"   Gusts: NA
Location:  37.42°N, 79.12°W
Report Text: KLYH 232054Z 00000KT 9SM -RA OVC027 07/06 A3006 RMK AO2 SLP185 P0001 60002 T00720061 56028 $
Loading
Personal Weather Stations






























Interactive Weather Map New forecast layout! Learn more

10-Day Weather Forecast

Advertisements
Track Severe Weather on mobile